sensor_id;sensor_type;location;lat;lon;timestamp;temperature;humidity
25732;DHT22;13585;50.864;4.406;2023-07-29T00:01:16;27.00;57.70
25732;DHT22;13585;50.864;4.406;2023-07-29T00:03:41;27.00;57.70
25732;DHT22;13585;50.864;4.406;2023-07-29T00:06:07;27.00;57.70
25732;DHT22;13585;50.864;4.406;2023-07-29T00:08:33;27.00;57.70
25732;DHT22;13585;50.864;4.406;2023-07-29T00:10:58;27.00;57.70
25732;DHT22;13585;50.864;4.406;2023-07-29T00:13:24;27.00;57.70
25732;DHT22;13585;50.864;4.406;2023-07-29T00:15:49;27.00;58.20
25732;DHT22;13585;50.864;4.406;2023-07-29T00:18:15;27.00;57.60
25732;DHT22;13585;50.864;4.406;2023-07-29T00:20:41;27.00;57.60
25732;DHT22;13585;50.864;4.406;2023-07-29T00:23:06;27.00;57.60
25732;DHT22;13585;50.864;4.406;2023-07-29T00:25:32;27.00;57.60
25732;DHT22;13585;50.864;4.406;2023-07-29T00:27:58;27.00;57.60
25732;DHT22;13585;50.864;4.406;2023-07-29T00:30:24;27.00;57.50
25732;DHT22;13585;50.864;4.406;2023-07-29T00:32:50;27.00;57.50
25732;DHT22;13585;50.864;4.406;2023-07-29T00:35:15;27.00;57.50
25732;DHT22;13585;50.864;4.406;2023-07-29T00:37:41;27.00;57.50
25732;DHT22;13585;50.864;4.406;2023-07-29T00:40:15;27.00;57.40
25732;DHT22;13585;50.864;4.406;2023-07-29T00:42:42;27.00;57.50
25732;DHT22;13585;50.864;4.406;2023-07-29T00:45:09;27.00;57.40
25732;DHT22;13585;50.864;4.406;2023-07-29T00:47:34;27.00;57.40
25732;DHT22;13585;50.864;4.406;2023-07-29T00:50:00;27.00;57.40
25732;DHT22;13585;50.864;4.406;2023-07-29T00:52:26;27.00;57.40
25732;DHT22;13585;50.864;4.406;2023-07-29T00:54:52;27.00;57.40
25732;DHT22;13585;50.864;4.406;2023-07-29T00:57:18;27.00;57.30
25732;DHT22;13585;50.864;4.406;2023-07-29T00:59:44;27.00;57.30
25732;DHT22;13585;50.864;4.406;2023-07-29T01:02:10;27.00;57.90
25732;DHT22;13585;50.864;4.406;2023-07-29T01:04:36;27.00;57.30
25732;DHT22;13585;50.864;4.406;2023-07-29T01:10:00;27.00;57.40
25732;DHT22;13585;50.864;4.406;2023-07-29T01:12:47;27.00;57.30
25732;DHT22;13585;50.864;4.406;2023-07-29T01:15:21;27.00;57.30
25732;DHT22;13585;50.864;4.406;2023-07-29T01:17:56;27.00;57.20
25732;DHT22;13585;50.864;4.406;2023-07-29T01:20:24;27.00;57.30
25732;DHT22;13585;50.864;4.406;2023-07-29T01:22:50;27.00;57.20
25732;DHT22;13585;50.864;4.406;2023-07-29T01:25:16;27.00;57.20
25732;DHT22;13585;50.864;4.406;2023-07-29T01:27:44;27.00;57.20
25732;DHT22;13585;50.864;4.406;2023-07-29T01:30:10;27.00;57.20
25732;DHT22;13585;50.864;4.406;2023-07-29T01:35:27;27.00;57.20
25732;DHT22;13585;50.864;4.406;2023-07-29T01:38:04;26.90;57.20
25732;DHT22;13585;50.864;4.406;2023-07-29T01:40:31;27.00;57.10
25732;DHT22;13585;50.864;4.406;2023-07-29T01:42:57;27.00;57.00
25732;DHT22;13585;50.864;4.406;2023-07-29T01:45:24;27.00;57.10
25732;DHT22;13585;50.864;4.406;2023-07-29T01:47:51;27.00;57.10
25732;DHT22;13585;50.864;4.406;2023-07-29T01:50:17;27.00;57.10
25732;DHT22;13585;50.864;4.406;2023-07-29T01:52:42;27.00;57.10
25732;DHT22;13585;50.864;4.406;2023-07-29T01:55:08;27.00;57.70
25732;DHT22;13585;50.864;4.406;2023-07-29T01:57:34;27.00;57.00
25732;DHT22;13585;50.864;4.406;2023-07-29T01:59:59;27.00;57.00
25732;DHT22;13585;50.864;4.406;2023-07-29T02:02:25;27.00;57.00
25732;DHT22;13585;50.864;4.406;2023-07-29T02:04:51;27.00;57.00
25732;DHT22;13585;50.864;4.406;2023-07-29T02:07:18;27.00;57.00
25732;DHT22;13585;50.864;4.406;2023-07-29T02:09:44;27.00;57.00
25732;DHT22;13585;50.864;4.406;2023-07-29T02:12:10;27.00;57.00
25732;DHT22;13585;50.864;4.406;2023-07-29T02:14:36;27.00;57.00
25732;DHT22;13585;50.864;4.406;2023-07-29T02:17:01;27.00;57.00
25732;DHT22;13585;50.864;4.406;2023-07-29T02:19:27;27.00;56.90
25732;DHT22;13585;50.864;4.406;2023-07-29T02:21:52;27.00;57.00
25732;DHT22;13585;50.864;4.406;2023-07-29T02:24:18;27.00;56.90
25732;DHT22;13585;50.864;4.406;2023-07-29T02:26:44;27.00;56.90
25732;DHT22;13585;50.864;4.406;2023-07-29T02:29:09;27.00;56.90
25732;DHT22;13585;50.864;4.406;2023-07-29T02:31:35;27.00;56.90
25732;DHT22;13585;50.864;4.406;2023-07-29T02:34:03;27.00;56.90
25732;DHT22;13585;50.864;4.406;2023-07-29T02:36:28;27.00;56.80
25732;DHT22;13585;50.864;4.406;2023-07-29T02:38:54;26.90;56.80
25732;DHT22;13585;50.864;4.406;2023-07-29T02:41:20;27.00;56.80
25732;DHT22;13585;50.864;4.406;2023-07-29T02:43:49;27.00;56.80
25732;DHT22;13585;50.864;4.406;2023-07-29T02:46:14;26.90;56.70
25732;DHT22;13585;50.864;4.406;2023-07-29T02:48:41;27.00;56.70
25732;DHT22;13585;50.864;4.406;2023-07-29T02:51:07;27.00;56.70
25732;DHT22;13585;50.864;4.406;2023-07-29T02:53:32;27.00;56.70
25732;DHT22;13585;50.864;4.406;2023-07-29T02:55:58;27.00;56.70
25732;DHT22;13585;50.864;4.406;2023-07-29T02:58:23;27.00;56.70
25732;DHT22;13585;50.864;4.406;2023-07-29T03:00:51;27.00;56.70
25732;DHT22;13585;50.864;4.406;2023-07-29T03:03:17;27.00;56.60
25732;DHT22;13585;50.864;4.406;2023-07-29T03:05:44;26.90;56.50
25732;DHT22;13585;50.864;4.406;2023-07-29T03:08:09;26.90;56.50
25732;DHT22;13585;50.864;4.406;2023-07-29T03:10:35;26.90;57.10
25732;DHT22;13585;50.864;4.406;2023-07-29T03:13:04;26.90;56.50
25732;DHT22;13585;50.864;4.406;2023-07-29T03:15:29;26.90;56.40
25732;DHT22;13585;50.864;4.406;2023-07-29T03:17:55;26.90;56.80
25732;DHT22;13585;50.864;4.406;2023-07-29T03:20:20;26.90;56.40
25732;DHT22;13585;50.864;4.406;2023-07-29T03:22:46;26.90;56.40
25732;DHT22;13585;50.864;4.406;2023-07-29T03:25:12;26.90;56.30
25732;DHT22;13585;50.864;4.406;2023-07-29T03:27:37;26.90;56.30
25732;DHT22;13585;50.864;4.406;2023-07-29T03:30:05;27.00;56.40
25732;DHT22;13585;50.864;4.406;2023-07-29T03:32:32;27.00;56.30
25732;DHT22;13585;50.864;4.406;2023-07-29T03:34:58;26.90;56.30
25732;DHT22;13585;50.864;4.406;2023-07-29T03:37:24;26.90;56.20
25732;DHT22;13585;50.864;4.406;2023-07-29T03:39:49;26.90;56.20
25732;DHT22;13585;50.864;4.406;2023-07-29T03:42:17;26.90;56.20
25732;DHT22;13585;50.864;4.406;2023-07-29T03:44:43;26.90;56.20
25732;DHT22;13585;50.864;4.406;2023-07-29T03:47:08;26.90;56.20
25732;DHT22;13585;50.864;4.406;2023-07-29T03:49:34;26.90;56.10
25732;DHT22;13585;50.864;4.406;2023-07-29T03:52:00;26.90;56.10
25732;DHT22;13585;50.864;4.406;2023-07-29T03:54:25;26.90;56.10
25732;DHT22;13585;50.864;4.406;2023-07-29T03:56:51;26.90;56.00
25732;DHT22;13585;50.864;4.406;2023-07-29T03:59:17;26.90;56.10
25732;DHT22;13585;50.864;4.406;2023-07-29T04:01:42;26.90;56.00
25732;DHT22;13585;50.864;4.406;2023-07-29T04:04:08;26.90;56.00
25732;DHT22;13585;50.864;4.406;2023-07-29T04:06:34;26.90;56.00
25732;DHT22;13585;50.864;4.406;2023-07-29T04:08:59;27.00;56.00
25732;DHT22;13585;50.864;4.406;2023-07-29T04:11:26;26.90;56.00
25732;DHT22;13585;50.864;4.406;2023-07-29T04:13:51;26.90;55.90
25732;DHT22;13585;50.864;4.406;2023-07-29T04:16:17;26.90;55.90
25732;DHT22;13585;50.864;4.406;2023-07-29T04:18:43;26.90;55.90
25732;DHT22;13585;50.864;4.406;2023-07-29T04:21:08;27.00;56.00
25732;DHT22;13585;50.864;4.406;2023-07-29T04:23:34;26.90;55.90
25732;DHT22;13585;50.864;4.406;2023-07-29T04:26:00;26.90;55.80
25732;DHT22;13585;50.864;4.406;2023-07-29T04:28:26;26.90;55.80
25732;DHT22;13585;50.864;4.406;2023-07-29T04:30:51;26.90;55.80
25732;DHT22;13585;50.864;4.406;2023-07-29T04:33:17;26.90;55.80
25732;DHT22;13585;50.864;4.406;2023-07-29T04:35:42;26.90;55.80
25732;DHT22;13585;50.864;4.406;2023-07-29T04:38:08;26.90;55.80
25732;DHT22;13585;50.864;4.406;2023-07-29T04:40:34;26.90;55.80
25732;DHT22;13585;50.864;4.406;2023-07-29T04:43:02;26.90;55.70
25732;DHT22;13585;50.864;4.406;2023-07-29T04:45:29;26.90;55.80
25732;DHT22;13585;50.864;4.406;2023-07-29T04:47:55;26.90;55.70
25732;DHT22;13585;50.864;4.406;2023-07-29T04:50:21;26.90;55.70
25732;DHT22;13585;50.864;4.406;2023-07-29T04:52:46;26.90;55.70
25732;DHT22;13585;50.864;4.406;2023-07-29T04:55:12;26.90;55.70
25732;DHT22;13585;50.864;4.406;2023-07-29T04:57:37;26.90;55.70
25732;DHT22;13585;50.864;4.406;2023-07-29T05:00:03;26.90;55.70
25732;DHT22;13585;50.864;4.406;2023-07-29T05:02:29;26.90;55.60
25732;DHT22;13585;50.864;4.406;2023-07-29T05:04:54;26.90;55.70
25732;DHT22;13585;50.864;4.406;2023-07-29T05:07:20;26.90;55.60
25732;DHT22;13585;50.864;4.406;2023-07-29T05:09:47;26.90;55.60
25732;DHT22;13585;50.864;4.406;2023-07-29T05:12:12;26.90;55.60
25732;DHT22;13585;50.864;4.406;2023-07-29T05:14:38;26.90;55.60
25732;DHT22;13585;50.864;4.406;2023-07-29T05:17:03;26.90;55.60
25732;DHT22;13585;50.864;4.406;2023-07-29T05:19:29;26.90;55.60
25732;DHT22;13585;50.864;4.406;2023-07-29T05:21:56;26.90;55.50
25732;DHT22;13585;50.864;4.406;2023-07-29T05:24:21;26.90;55.50
25732;DHT22;13585;50.864;4.406;2023-07-29T05:26:48;26.90;55.60
25732;DHT22;13585;50.864;4.406;2023-07-29T05:29:14;26.90;55.50
25732;DHT22;13585;50.864;4.406;2023-07-29T05:31:40;26.90;55.50
25732;DHT22;13585;50.864;4.406;2023-07-29T05:34:05;26.90;55.50
25732;DHT22;13585;50.864;4.406;2023-07-29T05:36:31;26.90;55.50
25732;DHT22;13585;50.864;4.406;2023-07-29T05:38:56;26.90;55.50
25732;DHT22;13585;50.864;4.406;2023-07-29T05:41:22;26.90;55.50
25732;DHT22;13585;50.864;4.406;2023-07-29T05:43:48;26.90;55.50
25732;DHT22;13585;50.864;4.406;2023-07-29T05:46:13;26.90;55.50
25732;DHT22;13585;50.864;4.406;2023-07-29T05:48:39;26.90;55.50
25732;DHT22;13585;50.864;4.406;2023-07-29T05:51:05;26.90;55.50
25732;DHT22;13585;50.864;4.406;2023-07-29T05:53:31;26.90;55.50
25732;DHT22;13585;50.864;4.406;2023-07-29T05:55:57;26.90;55.50
25732;DHT22;13585;50.864;4.406;2023-07-29T05:58:22;26.90;55.50
25732;DHT22;13585;50.864;4.406;2023-07-29T06:00:48;26.90;55.50
25732;DHT22;13585;50.864;4.406;2023-07-29T06:03:14;26.90;55.50
25732;DHT22;13585;50.864;4.406;2023-07-29T06:05:39;26.90;55.50
25732;DHT22;13585;50.864;4.406;2023-07-29T06:08:05;26.90;55.50
25732;DHT22;13585;50.864;4.406;2023-07-29T06:10:32;26.90;55.50
25732;DHT22;13585;50.864;4.406;2023-07-29T06:12:58;26.90;55.60
25732;DHT22;13585;50.864;4.406;2023-07-29T06:15:23;26.90;55.60
25732;DHT22;13585;50.864;4.406;2023-07-29T06:17:49;26.90;55.50
25732;DHT22;13585;50.864;4.406;2023-07-29T06:20:15;26.90;55.50
25732;DHT22;13585;50.864;4.406;2023-07-29T06:22:41;26.90;55.50
25732;DHT22;13585;50.864;4.406;2023-07-29T06:25:07;26.90;55.50
25732;DHT22;13585;50.864;4.406;2023-07-29T06:27:32;26.90;55.50
25732;DHT22;13585;50.864;4.406;2023-07-29T06:29:58;26.90;55.50
25732;DHT22;13585;50.864;4.406;2023-07-29T06:32:23;26.90;55.50
25732;DHT22;13585;50.864;4.406;2023-07-29T06:34:49;26.90;55.50
25732;DHT22;13585;50.864;4.406;2023-07-29T06:37:17;26.90;55.50
25732;DHT22;13585;50.864;4.406;2023-07-29T06:39:42;26.90;55.50
25732;DHT22;13585;50.864;4.406;2023-07-29T06:42:08;26.90;55.50
25732;DHT22;13585;50.864;4.406;2023-07-29T06:44:34;26.90;55.50
25732;DHT22;13585;50.864;4.406;2023-07-29T06:46:59;26.90;55.50
25732;DHT22;13585;50.864;4.406;2023-07-29T06:49:25;26.90;55.60
25732;DHT22;13585;50.864;4.406;2023-07-29T06:51:50;26.90;55.60
25732;DHT22;13585;50.864;4.406;2023-07-29T06:54:16;26.90;55.60
25732;DHT22;13585;50.864;4.406;2023-07-29T06:56:42;26.80;55.60
25732;DHT22;13585;50.864;4.406;2023-07-29T06:59:08;26.80;55.70
25732;DHT22;13585;50.864;4.406;2023-07-29T07:01:34;26.80;55.70
25732;DHT22;13585;50.864;4.406;2023-07-29T07:04:00;26.80;55.70
25732;DHT22;13585;50.864;4.406;2023-07-29T07:06:25;26.80;55.80
25732;DHT22;13585;50.864;4.406;2023-07-29T07:08:51;26.80;55.80
25732;DHT22;13585;50.864;4.406;2023-07-29T07:11:18;26.80;55.70
25732;DHT22;13585;50.864;4.406;2023-07-29T07:13:44;26.80;55.70
25732;DHT22;13585;50.864;4.406;2023-07-29T07:16:09;26.80;55.70
25732;DHT22;13585;50.864;4.406;2023-07-29T07:18:35;26.80;55.60
25732;DHT22;13585;50.864;4.406;2023-07-29T07:21:01;26.80;55.60
25732;DHT22;13585;50.864;4.406;2023-07-29T07:23:26;26.80;55.60
25732;DHT22;13585;50.864;4.406;2023-07-29T07:25:52;26.80;55.50
25732;DHT22;13585;50.864;4.406;2023-07-29T07:28:17;26.90;55.60
25732;DHT22;13585;50.864;4.406;2023-07-29T07:30:43;26.80;55.50
25732;DHT22;13585;50.864;4.406;2023-07-29T07:33:09;26.90;55.60
25732;DHT22;13585;50.864;4.406;2023-07-29T07:35:34;26.90;55.50
25732;DHT22;13585;50.864;4.406;2023-07-29T07:38:00;26.90;55.50
25732;DHT22;13585;50.864;4.406;2023-07-29T07:40:28;26.90;55.50
25732;DHT22;13585;50.864;4.406;2023-07-29T07:42:53;26.90;55.50
25732;DHT22;13585;50.864;4.406;2023-07-29T07:45:19;26.90;55.50
25732;DHT22;13585;50.864;4.406;2023-07-29T07:47:45;26.90;55.40
25732;DHT22;13585;50.864;4.406;2023-07-29T07:50:10;26.90;55.50
25732;DHT22;13585;50.864;4.406;2023-07-29T07:52:36;26.90;55.40
25732;DHT22;13585;50.864;4.406;2023-07-29T07:55:02;26.90;56.10
25732;DHT22;13585;50.864;4.406;2023-07-29T07:57:27;26.80;55.50
25732;DHT22;13585;50.864;4.406;2023-07-29T07:59:53;26.90;55.60
25732;DHT22;13585;50.864;4.406;2023-07-29T08:02:19;26.80;55.60
25732;DHT22;13585;50.864;4.406;2023-07-29T08:04:45;26.80;55.60
25732;DHT22;13585;50.864;4.406;2023-07-29T08:07:11;26.80;55.70
25732;DHT22;13585;50.864;4.406;2023-07-29T08:09:36;26.80;55.80
25732;DHT22;13585;50.864;4.406;2023-07-29T08:12:02;26.80;55.80
25732;DHT22;13585;50.864;4.406;2023-07-29T08:14:28;26.80;55.80
25732;DHT22;13585;50.864;4.406;2023-07-29T08:16:53;26.70;55.80
25732;DHT22;13585;50.864;4.406;2023-07-29T08:19:19;26.80;55.90
25732;DHT22;13585;50.864;4.406;2023-07-29T08:21:45;26.80;55.90
25732;DHT22;13585;50.864;4.406;2023-07-29T08:24:10;26.80;55.90
25732;DHT22;13585;50.864;4.406;2023-07-29T08:26:36;26.80;55.80
25732;DHT22;13585;50.864;4.406;2023-07-29T08:29:01;26.80;55.90
25732;DHT22;13585;50.864;4.406;2023-07-29T08:31:27;26.80;55.90
25732;DHT22;13585;50.864;4.406;2023-07-29T08:33:53;26.70;55.80
25732;DHT22;13585;50.864;4.406;2023-07-29T08:36:19;26.80;55.90
25732;DHT22;13585;50.864;4.406;2023-07-29T08:38:44;26.80;55.90
25732;DHT22;13585;50.864;4.406;2023-07-29T08:41:25;26.80;55.90
25732;DHT22;13585;50.864;4.406;2023-07-29T08:44:21;26.70;56.00
25732;DHT22;13585;50.864;4.406;2023-07-29T08:46:46;26.70;55.90
25732;DHT22;13585;50.864;4.406;2023-07-29T08:49:12;26.80;55.90
25732;DHT22;13585;50.864;4.406;2023-07-29T08:51:43;26.80;56.00
25732;DHT22;13585;50.864;4.406;2023-07-29T08:54:10;26.80;56.00
25732;DHT22;13585;50.864;4.406;2023-07-29T08:56:36;26.80;56.00
25732;DHT22;13585;50.864;4.406;2023-07-29T08:59:03;26.80;56.00
25732;DHT22;13585;50.864;4.406;2023-07-29T09:01:30;26.80;56.10
25732;DHT22;13585;50.864;4.406;2023-07-29T09:03:56;26.80;56.20
25732;DHT22;13585;50.864;4.406;2023-07-29T09:06:22;26.80;56.20
25732;DHT22;13585;50.864;4.406;2023-07-29T09:08:50;26.80;56.20
25732;DHT22;13585;50.864;4.406;2023-07-29T09:11:16;26.80;56.30
25732;DHT22;13585;50.864;4.406;2023-07-29T09:13:43;26.80;56.30
25732;DHT22;13585;50.864;4.406;2023-07-29T09:16:09;26.80;56.30
25732;DHT22;13585;50.864;4.406;2023-07-29T09:18:35;26.80;56.40
25732;DHT22;13585;50.864;4.406;2023-07-29T09:21:00;26.80;56.40
25732;DHT22;13585;50.864;4.406;2023-07-29T09:23:27;26.80;56.40
25732;DHT22;13585;50.864;4.406;2023-07-29T09:26:02;26.80;56.50
25732;DHT22;13585;50.864;4.406;2023-07-29T09:28:36;26.80;56.60
25732;DHT22;13585;50.864;4.406;2023-07-29T09:31:01;26.80;56.60
25732;DHT22;13585;50.864;4.406;2023-07-29T09:33:34;26.80;56.60
25732;DHT22;13585;50.864;4.406;2023-07-29T09:36:11;26.80;56.70
25732;DHT22;13585;50.864;4.406;2023-07-29T09:38:37;26.80;56.70
25732;DHT22;13585;50.864;4.406;2023-07-29T09:41:03;26.80;56.70
25732;DHT22;13585;50.864;4.406;2023-07-29T09:43:31;26.80;56.70
25732;DHT22;13585;50.864;4.406;2023-07-29T09:46:05;26.90;56.80
25732;DHT22;13585;50.864;4.406;2023-07-29T09:48:33;26.80;56.80
25732;DHT22;13585;50.864;4.406;2023-07-29T09:50:59;26.80;56.80
25732;DHT22;13585;50.864;4.406;2023-07-29T09:53:25;26.80;56.80
25732;DHT22;13585;50.864;4.406;2023-07-29T09:55:53;26.80;56.90
25732;DHT22;13585;50.864;4.406;2023-07-29T09:58:26;26.80;56.90
25732;DHT22;13585;50.864;4.406;2023-07-29T10:00:52;26.80;56.90
25732;DHT22;13585;50.864;4.406;2023-07-29T10:03:21;26.80;56.90
25732;DHT22;13585;50.864;4.406;2023-07-29T10:05:47;26.80;57.00
25732;DHT22;13585;50.864;4.406;2023-07-29T10:08:13;26.90;57.00
25732;DHT22;13585;50.864;4.406;2023-07-29T10:10:42;26.90;57.00
25732;DHT22;13585;50.864;4.406;2023-07-29T10:13:09;26.80;57.00
25732;DHT22;13585;50.864;4.406;2023-07-29T10:15:35;26.80;57.00
25732;DHT22;13585;50.864;4.406;2023-07-29T10:18:02;26.90;57.00
25732;DHT22;13585;50.864;4.406;2023-07-29T10:20:30;26.90;57.00
25732;DHT22;13585;50.864;4.406;2023-07-29T10:22:59;26.90;57.00
25732;DHT22;13585;50.864;4.406;2023-07-29T10:25:30;26.90;57.00
25732;DHT22;13585;50.864;4.406;2023-07-29T10:28:08;26.90;57.00
25732;DHT22;13585;50.864;4.406;2023-07-29T10:30:34;26.90;57.10
25732;DHT22;13585;50.864;4.406;2023-07-29T10:33:02;26.90;57.00
25732;DHT22;13585;50.864;4.406;2023-07-29T10:35:28;26.90;57.10
25732;DHT22;13585;50.864;4.406;2023-07-29T10:37:55;26.90;57.10
25732;DHT22;13585;50.864;4.406;2023-07-29T10:40:22;26.90;57.10
25732;DHT22;13585;50.864;4.406;2023-07-29T10:43:10;26.90;57.10
25732;DHT22;13585;50.864;4.406;2023-07-29T10:45:37;26.90;57.20
25732;DHT22;13585;50.864;4.406;2023-07-29T10:53:47;26.90;57.30
25732;DHT22;13585;50.864;4.406;2023-07-29T10:56:13;26.90;57.20
25732;DHT22;13585;50.864;4.406;2023-07-29T10:58:49;26.90;57.30
25732;DHT22;13585;50.864;4.406;2023-07-29T11:01:27;26.90;57.20
25732;DHT22;13585;50.864;4.406;2023-07-29T11:15:03;26.90;57.50
25732;DHT22;13585;50.864;4.406;2023-07-29T11:17:32;26.90;57.50
25732;DHT22;13585;50.864;4.406;2023-07-29T11:20:00;26.90;57.60
25732;DHT22;13585;50.864;4.406;2023-07-29T11:22:26;26.90;57.60
25732;DHT22;13585;50.864;4.406;2023-07-29T11:24:52;26.90;57.70
25732;DHT22;13585;50.864;4.406;2023-07-29T11:27:17;26.90;57.80
25732;DHT22;13585;50.864;4.406;2023-07-29T11:29:43;26.90;57.70
25732;DHT22;13585;50.864;4.406;2023-07-29T11:32:09;26.90;57.70
25732;DHT22;13585;50.864;4.406;2023-07-29T11:34:35;26.90;57.70
25732;DHT22;13585;50.864;4.406;2023-07-29T11:37:01;26.90;57.70
25732;DHT22;13585;50.864;4.406;2023-07-29T11:39:26;26.90;57.60
25732;DHT22;13585;50.864;4.406;2023-07-29T11:41:52;26.90;57.70
25732;DHT22;13585;50.864;4.406;2023-07-29T11:44:18;26.90;57.80
25732;DHT22;13585;50.864;4.406;2023-07-29T11:46:44;26.90;57.80
25732;DHT22;13585;50.864;4.406;2023-07-29T11:49:10;26.90;58.00
25732;DHT22;13585;50.864;4.406;2023-07-29T11:51:38;26.90;58.00
25732;DHT22;13585;50.864;4.406;2023-07-29T11:54:05;26.90;58.10
25732;DHT22;13585;50.864;4.406;2023-07-29T11:56:30;26.90;58.10
25732;DHT22;13585;50.864;4.406;2023-07-29T11:58:57;26.90;58.10
25732;DHT22;13585;50.864;4.406;2023-07-29T12:01:23;27.00;58.20
25732;DHT22;13585;50.864;4.406;2023-07-29T12:03:50;27.00;58.20
25732;DHT22;13585;50.864;4.406;2023-07-29T12:06:16;27.00;58.30
25732;DHT22;13585;50.864;4.406;2023-07-29T12:08:42;27.00;58.30
25732;DHT22;13585;50.864;4.406;2023-07-29T12:11:09;27.00;58.40
25732;DHT22;13585;50.864;4.406;2023-07-29T12:13:36;27.00;58.40
25732;DHT22;13585;50.864;4.406;2023-07-29T12:16:02;27.00;58.50
25732;DHT22;13585;50.864;4.406;2023-07-29T12:18:32;27.00;58.50
25732;DHT22;13585;50.864;4.406;2023-07-29T12:20:57;27.00;58.60
25732;DHT22;13585;50.864;4.406;2023-07-29T12:23:26;27.00;58.60
25732;DHT22;13585;50.864;4.406;2023-07-29T12:25:58;27.00;58.70
25732;DHT22;13585;50.864;4.406;2023-07-29T12:28:25;27.00;58.80
25732;DHT22;13585;50.864;4.406;2023-07-29T12:30:54;27.00;58.80
25732;DHT22;13585;50.864;4.406;2023-07-29T12:33:31;27.00;58.80
25732;DHT22;13585;50.864;4.406;2023-07-29T12:35:58;27.00;58.80
25732;DHT22;13585;50.864;4.406;2023-07-29T12:38:26;27.00;58.80
25732;DHT22;13585;50.864;4.406;2023-07-29T12:40:52;27.00;58.80
25732;DHT22;13585;50.864;4.406;2023-07-29T12:43:17;27.00;58.80
25732;DHT22;13585;50.864;4.406;2023-07-29T12:45:43;27.00;58.90
25732;DHT22;13585;50.864;4.406;2023-07-29T12:48:09;27.00;58.90
25732;DHT22;13585;50.864;4.406;2023-07-29T12:50:36;27.00;58.90
25732;DHT22;13585;50.864;4.406;2023-07-29T12:53:01;27.00;58.90
25732;DHT22;13585;50.864;4.406;2023-07-29T12:55:27;27.10;59.00
25732;DHT22;13585;50.864;4.406;2023-07-29T12:57:53;27.10;59.00
25732;DHT22;13585;50.864;4.406;2023-07-29T13:00:18;27.10;59.00
25732;DHT22;13585;50.864;4.406;2023-07-29T13:02:44;27.10;59.00
25732;DHT22;13585;50.864;4.406;2023-07-29T13:05:11;27.10;59.10
25732;DHT22;13585;50.864;4.406;2023-07-29T13:07:40;27.10;59.00
25732;DHT22;13585;50.864;4.406;2023-07-29T13:10:07;27.20;59.10
25732;DHT22;13585;50.864;4.406;2023-07-29T13:12:33;27.20;59.10
25732;DHT22;13585;50.864;4.406;2023-07-29T13:14:58;27.20;59.10
25732;DHT22;13585;50.864;4.406;2023-07-29T13:17:24;27.20;59.20
25732;DHT22;13585;50.864;4.406;2023-07-29T13:19:50;27.30;59.20
25732;DHT22;13585;50.864;4.406;2023-07-29T13:22:16;27.30;59.20
25732;DHT22;13585;50.864;4.406;2023-07-29T13:24:42;27.30;59.20
25732;DHT22;13585;50.864;4.406;2023-07-29T13:27:07;27.30;59.20
25732;DHT22;13585;50.864;4.406;2023-07-29T13:29:33;27.30;59.20
25732;DHT22;13585;50.864;4.406;2023-07-29T13:31:58;27.30;59.20
25732;DHT22;13585;50.864;4.406;2023-07-29T13:34:24;27.30;59.20
25732;DHT22;13585;50.864;4.406;2023-07-29T13:36:49;27.30;59.20
25732;DHT22;13585;50.864;4.406;2023-07-29T13:39:15;27.30;59.30
25732;DHT22;13585;50.864;4.406;2023-07-29T13:41:41;27.30;59.30
25732;DHT22;13585;50.864;4.406;2023-07-29T13:44:07;27.30;59.30
25732;DHT22;13585;50.864;4.406;2023-07-29T13:46:33;27.30;59.30
25732;DHT22;13585;50.864;4.406;2023-07-29T13:48:58;27.30;59.30
25732;DHT22;13585;50.864;4.406;2023-07-29T13:51:24;27.30;59.30
25732;DHT22;13585;50.864;4.406;2023-07-29T13:53:50;27.30;59.30
25732;DHT22;13585;50.864;4.406;2023-07-29T13:56:15;27.30;59.30
25732;DHT22;13585;50.864;4.406;2023-07-29T13:58:41;27.30;59.20
25732;DHT22;13585;50.864;4.406;2023-07-29T14:01:06;27.30;59.20
25732;DHT22;13585;50.864;4.406;2023-07-29T14:03:32;27.30;59.30
25732;DHT22;13585;50.864;4.406;2023-07-29T14:05:58;27.30;59.30
25732;DHT22;13585;50.864;4.406;2023-07-29T14:08:23;27.30;59.30
25732;DHT22;13585;50.864;4.406;2023-07-29T14:10:49;27.30;59.20
25732;DHT22;13585;50.864;4.406;2023-07-29T14:13:15;27.40;59.30
25732;DHT22;13585;50.864;4.406;2023-07-29T14:15:41;27.30;59.30
25732;DHT22;13585;50.864;4.406;2023-07-29T14:18:06;27.30;59.90
25732;DHT22;13585;50.864;4.406;2023-07-29T14:20:32;27.40;59.40
25732;DHT22;13585;50.864;4.406;2023-07-29T14:22:58;27.30;59.30
25732;DHT22;13585;50.864;4.406;2023-07-29T14:25:24;27.30;59.30
25732;DHT22;13585;50.864;4.406;2023-07-29T14:27:50;27.40;59.40
25732;DHT22;13585;50.864;4.406;2023-07-29T14:30:15;27.40;59.40
25732;DHT22;13585;50.864;4.406;2023-07-29T14:32:41;27.40;59.30
25732;DHT22;13585;50.864;4.406;2023-07-29T14:35:07;27.40;59.30
25732;DHT22;13585;50.864;4.406;2023-07-29T14:37:33;27.40;59.30
25732;DHT22;13585;50.864;4.406;2023-07-29T14:39:59;27.50;59.40
25732;DHT22;13585;50.864;4.406;2023-07-29T14:42:26;27.40;59.20
25732;DHT22;13585;50.864;4.406;2023-07-29T14:44:51;27.40;59.20
25732;DHT22;13585;50.864;4.406;2023-07-29T14:47:17;27.40;59.20
25732;DHT22;13585;50.864;4.406;2023-07-29T14:49:44;27.50;59.30
25732;DHT22;13585;50.864;4.406;2023-07-29T14:52:10;27.40;59.20
25732;DHT22;13585;50.864;4.406;2023-07-29T14:54:35;27.40;59.20
25732;DHT22;13585;50.864;4.406;2023-07-29T14:57:01;27.50;59.20
25732;DHT22;13585;50.864;4.406;2023-07-29T14:59:27;27.50;59.20
25732;DHT22;13585;50.864;4.406;2023-07-29T15:01:52;27.50;59.20
25732;DHT22;13585;50.864;4.406;2023-07-29T15:04:18;27.50;59.20
25732;DHT22;13585;50.864;4.406;2023-07-29T15:06:44;27.50;59.20
25732;DHT22;13585;50.864;4.406;2023-07-29T15:09:09;27.50;59.20
25732;DHT22;13585;50.864;4.406;2023-07-29T15:11:35;27.50;59.10
25732;DHT22;13585;50.864;4.406;2023-07-29T15:14:02;27.50;59.10
25732;DHT22;13585;50.864;4.406;2023-07-29T15:16:29;27.50;59.10
25732;DHT22;13585;50.864;4.406;2023-07-29T15:18:54;27.50;59.10
25732;DHT22;13585;50.864;4.406;2023-07-29T15:21:20;27.50;59.10
25732;DHT22;13585;50.864;4.406;2023-07-29T15:23:46;27.50;59.10
25732;DHT22;13585;50.864;4.406;2023-07-29T15:26:12;27.50;59.10
25732;DHT22;13585;50.864;4.406;2023-07-29T15:28:38;27.50;59.10
25732;DHT22;13585;50.864;4.406;2023-07-29T15:31:03;27.50;59.70
25732;DHT22;13585;50.864;4.406;2023-07-29T15:33:29;27.50;59.00
25732;DHT22;13585;50.864;4.406;2023-07-29T15:35:55;27.50;59.00
25732;DHT22;13585;50.864;4.406;2023-07-29T15:38:20;27.50;59.00
25732;DHT22;13585;50.864;4.406;2023-07-29T15:40:46;27.50;59.00
25732;DHT22;13585;50.864;4.406;2023-07-29T15:43:14;27.50;59.00
25732;DHT22;13585;50.864;4.406;2023-07-29T15:45:40;27.50;59.00
25732;DHT22;13585;50.864;4.406;2023-07-29T15:48:05;27.50;58.90